sensor_id;sensor_type;location;lat;lon;timestamp;temperature;humidity
3542;DHT22;1785;47.388;8.538;2023-08-12T00:00:23;26.30;99.90
3542;DHT22;1785;47.388;8.538;2023-08-12T00:02:49;26.30;99.90
3542;DHT22;1785;47.388;8.538;2023-08-12T00:05:15;26.20;99.90
3542;DHT22;1785;47.388;8.538;2023-08-12T00:07:41;26.20;99.90
3542;DHT22;1785;47.388;8.538;2023-08-12T00:10:09;26.20;99.90
3542;DHT22;1785;47.388;8.538;2023-08-12T00:12:36;26.20;99.90
3542;DHT22;1785;47.388;8.538;2023-08-12T00:15:04;26.10;99.90
3542;DHT22;1785;47.388;8.538;2023-08-12T00:17:32;26.10;99.90
3542;DHT22;1785;47.388;8.538;2023-08-12T00:19:58;26.10;99.90
3542;DHT22;1785;47.388;8.538;2023-08-12T00:22:24;26.20;99.90
3542;DHT22;1785;47.388;8.538;2023-08-12T00:24:51;25.90;99.90
3542;DHT22;1785;47.388;8.538;2023-08-12T00:27:18;25.60;99.90
3542;DHT22;1785;47.388;8.538;2023-08-12T00:29:44;25.60;99.90
3542;DHT22;1785;47.388;8.538;2023-08-12T00:32:10;25.60;99.90
3542;DHT22;1785;47.388;8.538;2023-08-12T00:34:36;25.50;99.90
3542;DHT22;1785;47.388;8.538;2023-08-12T00:37:02;25.70;99.90
3542;DHT22;1785;47.388;8.538;2023-08-12T00:39:28;25.80;99.90
3542;DHT22;1785;47.388;8.538;2023-08-12T00:41:54;25.90;99.90
3542;DHT22;1785;47.388;8.538;2023-08-12T00:44:21;25.90;99.90
3542;DHT22;1785;47.388;8.538;2023-08-12T00:46:48;26.00;99.90
3542;DHT22;1785;47.388;8.538;2023-08-12T00:49:15;26.10;99.90
3542;DHT22;1785;47.388;8.538;2023-08-12T00:51:43;26.10;99.90
3542;DHT22;1785;47.388;8.538;2023-08-12T00:54:13;25.90;99.90
3542;DHT22;1785;47.388;8.538;2023-08-12T00:56:40;25.40;99.90
3542;DHT22;1785;47.388;8.538;2023-08-12T00:59:08;25.00;99.90
3542;DHT22;1785;47.388;8.538;2023-08-12T01:01:35;24.80;99.90
3542;DHT22;1785;47.388;8.538;2023-08-12T01:04:04;24.80;99.90
3542;DHT22;1785;47.388;8.538;2023-08-12T01:06:30;25.00;99.90
3542;DHT22;1785;47.388;8.538;2023-08-12T01:08:57;25.20;99.90
3542;DHT22;1785;47.388;8.538;2023-08-12T01:11:27;25.40;99.90
3542;DHT22;1785;47.388;8.538;2023-08-12T01:13:58;25.40;99.90
3542;DHT22;1785;47.388;8.538;2023-08-12T01:16:28;25.50;99.90
3542;DHT22;1785;47.388;8.538;2023-08-12T01:18:56;25.60;99.90
3542;DHT22;1785;47.388;8.538;2023-08-12T01:21:24;25.70;99.90
3542;DHT22;1785;47.388;8.538;2023-08-12T01:23:53;25.70;99.90
3542;DHT22;1785;47.388;8.538;2023-08-12T01:26:19;25.60;99.90
3542;DHT22;1785;47.388;8.538;2023-08-12T01:28:45;25.70;99.90
3542;DHT22;1785;47.388;8.538;2023-08-12T01:31:15;25.70;99.90
3542;DHT22;1785;47.388;8.538;2023-08-12T01:33:46;25.70;99.90
3542;DHT22;1785;47.388;8.538;2023-08-12T01:36:16;25.70;99.90
3542;DHT22;1785;47.388;8.538;2023-08-12T01:38:43;25.80;99.90
3542;DHT22;1785;47.388;8.538;2023-08-12T01:41:11;25.70;99.90
3542;DHT22;1785;47.388;8.538;2023-08-12T01:43:38;25.70;99.90
3542;DHT22;1785;47.388;8.538;2023-08-12T01:46:04;25.80;99.90
3542;DHT22;1785;47.388;8.538;2023-08-12T01:48:31;25.40;99.90
3542;DHT22;1785;47.388;8.538;2023-08-12T01:50:57;25.20;99.90
3542;DHT22;1785;47.388;8.538;2023-08-12T01:53:23;25.20;99.90
3542;DHT22;1785;47.388;8.538;2023-08-12T01:55:49;25.30;99.90
3542;DHT22;1785;47.388;8.538;2023-08-12T01:58:16;25.40;99.90
3542;DHT22;1785;47.388;8.538;2023-08-12T02:00:42;25.50;99.90
3542;DHT22;1785;47.388;8.538;2023-08-12T02:03:08;25.50;99.90
3542;DHT22;1785;47.388;8.538;2023-08-12T02:05:34;25.50;99.90
3542;DHT22;1785;47.388;8.538;2023-08-12T02:08:03;25.50;99.90
3542;DHT22;1785;47.388;8.538;2023-08-12T02:10:29;25.40;99.90
3542;DHT22;1785;47.388;8.538;2023-08-12T02:12:55;25.40;99.90
3542;DHT22;1785;47.388;8.538;2023-08-12T02:15:22;25.40;99.90
3542;DHT22;1785;47.388;8.538;2023-08-12T02:17:48;25.40;99.90
3542;DHT22;1785;47.388;8.538;2023-08-12T02:20:14;25.40;99.90
3542;DHT22;1785;47.388;8.538;2023-08-12T02:22:40;25.30;99.90
3542;DHT22;1785;47.388;8.538;2023-08-12T02:25:06;25.20;99.90
3542;DHT22;1785;47.388;8.538;2023-08-12T02:27:33;25.20;99.90
3542;DHT22;1785;47.388;8.538;2023-08-12T02:29:59;25.30;99.90
3542;DHT22;1785;47.388;8.538;2023-08-12T02:32:25;25.30;99.90
3542;DHT22;1785;47.388;8.538;2023-08-12T02:34:51;25.40;99.90
3542;DHT22;1785;47.388;8.538;2023-08-12T02:37:17;25.40;99.90
3542;DHT22;1785;47.388;8.538;2023-08-12T02:39:43;25.40;99.90
3542;DHT22;1785;47.388;8.538;2023-08-12T02:42:09;25.60;99.90
3542;DHT22;1785;47.388;8.538;2023-08-12T02:44:35;25.50;99.90
3542;DHT22;1785;47.388;8.538;2023-08-12T02:47:01;25.40;99.90
3542;DHT22;1785;47.388;8.538;2023-08-12T02:49:28;25.40;99.90
3542;DHT22;1785;47.388;8.538;2023-08-12T02:51:54;25.30;99.90
3542;DHT22;1785;47.388;8.538;2023-08-12T02:54:20;25.30;99.90
3542;DHT22;1785;47.388;8.538;2023-08-12T02:56:46;25.30;99.90
3542;DHT22;1785;47.388;8.538;2023-08-12T02:59:12;25.20;99.90
3542;DHT22;1785;47.388;8.538;2023-08-12T03:01:40;25.20;99.90
3542;DHT22;1785;47.388;8.538;2023-08-12T03:04:06;25.20;99.90
3542;DHT22;1785;47.388;8.538;2023-08-12T03:06:33;25.20;99.90
3542;DHT22;1785;47.388;8.538;2023-08-12T03:08:59;25.20;99.90
3542;DHT22;1785;47.388;8.538;2023-08-12T03:11:25;25.20;99.90
3542;DHT22;1785;47.388;8.538;2023-08-12T03:13:51;25.20;99.90
3542;DHT22;1785;47.388;8.538;2023-08-12T03:16:17;25.20;99.90
3542;DHT22;1785;47.388;8.538;2023-08-12T03:18:43;25.20;99.90
3542;DHT22;1785;47.388;8.538;2023-08-12T03:21:09;25.10;99.90
3542;DHT22;1785;47.388;8.538;2023-08-12T03:23:37;25.10;99.90
3542;DHT22;1785;47.388;8.538;2023-08-12T03:26:03;25.10;99.90
3542;DHT22;1785;47.388;8.538;2023-08-12T03:28:30;25.20;99.90
3542;DHT22;1785;47.388;8.538;2023-08-12T03:30:56;25.20;99.90
3542;DHT22;1785;47.388;8.538;2023-08-12T03:33:22;25.10;99.90
3542;DHT22;1785;47.388;8.538;2023-08-12T03:35:49;25.10;99.90
3542;DHT22;1785;47.388;8.538;2023-08-12T03:38:15;25.10;99.90
3542;DHT22;1785;47.388;8.538;2023-08-12T03:40:42;25.10;99.90
3542;DHT22;1785;47.388;8.538;2023-08-12T03:43:08;25.10;99.90
3542;DHT22;1785;47.388;8.538;2023-08-12T03:45:39;25.10;99.90
3542;DHT22;1785;47.388;8.538;2023-08-12T03:48:06;25.00;99.90
3542;DHT22;1785;47.388;8.538;2023-08-12T03:50:33;25.00;99.90
3542;DHT22;1785;47.388;8.538;2023-08-12T03:52:59;24.90;99.90
3542;DHT22;1785;47.388;8.538;2023-08-12T03:55:25;24.90;99.90
3542;DHT22;1785;47.388;8.538;2023-08-12T03:57:52;24.90;99.90
3542;DHT22;1785;47.388;8.538;2023-08-12T04:00:18;24.80;99.90
3542;DHT22;1785;47.388;8.538;2023-08-12T04:02:44;24.30;99.90
3542;DHT22;1785;47.388;8.538;2023-08-12T04:05:10;24.00;99.90
3542;DHT22;1785;47.388;8.538;2023-08-12T04:07:37;24.00;99.90
3542;DHT22;1785;47.388;8.538;2023-08-12T04:10:03;24.20;99.90
3542;DHT22;1785;47.388;8.538;2023-08-12T04:12:29;24.50;99.90
3542;DHT22;1785;47.388;8.538;2023-08-12T04:14:55;24.60;99.90
3542;DHT22;1785;47.388;8.538;2023-08-12T04:17:22;24.70;99.90
3542;DHT22;1785;47.388;8.538;2023-08-12T04:19:48;24.80;99.90
3542;DHT22;1785;47.388;8.538;2023-08-12T04:22:14;24.80;99.90
3542;DHT22;1785;47.388;8.538;2023-08-12T04:24:42;24.80;99.90
3542;DHT22;1785;47.388;8.538;2023-08-12T04:27:08;24.80;99.90
3542;DHT22;1785;47.388;8.538;2023-08-12T04:29:35;24.90;99.90
3542;DHT22;1785;47.388;8.538;2023-08-12T04:32:02;24.90;99.90
3542;DHT22;1785;47.388;8.538;2023-08-12T04:34:28;25.00;99.90
3542;DHT22;1785;47.388;8.538;2023-08-12T04:36:54;24.90;99.90
3542;DHT22;1785;47.388;8.538;2023-08-12T04:39:20;24.90;99.90
3542;DHT22;1785;47.388;8.538;2023-08-12T04:41:47;24.90;99.90
3542;DHT22;1785;47.388;8.538;2023-08-12T04:44:13;24.90;99.90
3542;DHT22;1785;47.388;8.538;2023-08-12T04:46:39;24.90;99.90
3542;DHT22;1785;47.388;8.538;2023-08-12T04:49:06;25.00;99.90
3542;DHT22;1785;47.388;8.538;2023-08-12T04:51:33;25.00;99.90
3542;DHT22;1785;47.388;8.538;2023-08-12T04:53:59;24.90;99.90
3542;DHT22;1785;47.388;8.538;2023-08-12T04:56:27;25.00;99.90
3542;DHT22;1785;47.388;8.538;2023-08-12T04:58:54;25.00;99.90
3542;DHT22;1785;47.388;8.538;2023-08-12T05:01:20;25.00;99.90
3542;DHT22;1785;47.388;8.538;2023-08-12T05:03:46;24.90;99.90
3542;DHT22;1785;47.388;8.538;2023-08-12T05:06:13;24.90;99.90
3542;DHT22;1785;47.388;8.538;2023-08-12T05:08:39;24.90;99.90
3542;DHT22;1785;47.388;8.538;2023-08-12T05:11:05;24.80;99.90
3542;DHT22;1785;47.388;8.538;2023-08-12T05:13:31;24.80;99.90
3542;DHT22;1785;47.388;8.538;2023-08-12T05:15:57;24.80;99.90
3542;DHT22;1785;47.388;8.538;2023-08-12T05:18:23;24.80;99.90
3542;DHT22;1785;47.388;8.538;2023-08-12T05:20:51;24.80;99.90
3542;DHT22;1785;47.388;8.538;2023-08-12T05:23:18;24.80;99.90
3542;DHT22;1785;47.388;8.538;2023-08-12T05:25:44;24.70;99.90
3542;DHT22;1785;47.388;8.538;2023-08-12T05:28:10;24.60;99.90
3542;DHT22;1785;47.388;8.538;2023-08-12T05:30:36;24.30;99.90
3542;DHT22;1785;47.388;8.538;2023-08-12T05:33:02;24.20;99.90
3542;DHT22;1785;47.388;8.538;2023-08-12T05:35:28;24.40;99.90
3542;DHT22;1785;47.388;8.538;2023-08-12T05:37:54;24.60;99.90
3542;DHT22;1785;47.388;8.538;2023-08-12T05:40:21;24.50;99.90
3542;DHT22;1785;47.388;8.538;2023-08-12T05:42:47;24.30;99.90
3542;DHT22;1785;47.388;8.538;2023-08-12T05:45:13;24.10;99.90
3542;DHT22;1785;47.388;8.538;2023-08-12T05:47:39;24.30;99.90
3542;DHT22;1785;47.388;8.538;2023-08-12T05:50:05;24.50;99.90
3542;DHT22;1785;47.388;8.538;2023-08-12T05:52:32;24.40;99.90
3542;DHT22;1785;47.388;8.538;2023-08-12T05:54:58;24.30;99.90
3542;DHT22;1785;47.388;8.538;2023-08-12T05:57:25;24.10;99.90
3542;DHT22;1785;47.388;8.538;2023-08-12T05:59:51;24.30;99.90
3542;DHT22;1785;47.388;8.538;2023-08-12T06:02:17;24.40;99.90
3542;DHT22;1785;47.388;8.538;2023-08-12T06:04:44;24.60;99.90
3542;DHT22;1785;47.388;8.538;2023-08-12T06:07:10;24.60;99.90
3542;DHT22;1785;47.388;8.538;2023-08-12T06:09:36;24.50;99.90
3542;DHT22;1785;47.388;8.538;2023-08-12T06:12:02;24.50;99.90
3542;DHT22;1785;47.388;8.538;2023-08-12T06:14:29;24.50;99.90
3542;DHT22;1785;47.388;8.538;2023-08-12T06:16:55;24.30;99.90
3542;DHT22;1785;47.388;8.538;2023-08-12T06:19:21;24.10;99.90
3542;DHT22;1785;47.388;8.538;2023-08-12T06:21:47;24.20;99.90
3542;DHT22;1785;47.388;8.538;2023-08-12T06:24:13;24.50;99.90
3542;DHT22;1785;47.388;8.538;2023-08-12T06:26:39;24.80;99.90
3542;DHT22;1785;47.388;8.538;2023-08-12T06:29:05;24.90;99.90
3542;DHT22;1785;47.388;8.538;2023-08-12T06:31:32;24.70;99.90
3542;DHT22;1785;47.388;8.538;2023-08-12T06:33:58;24.60;99.90
3542;DHT22;1785;47.388;8.538;2023-08-12T06:36:24;24.80;99.90
3542;DHT22;1785;47.388;8.538;2023-08-12T06:38:50;24.40;99.90
3542;DHT22;1785;47.388;8.538;2023-08-12T06:41:16;24.20;99.90
3542;DHT22;1785;47.388;8.538;2023-08-12T06:43:43;24.40;99.90
3542;DHT22;1785;47.388;8.538;2023-08-12T06:46:09;24.60;99.90
3542;DHT22;1785;47.388;8.538;2023-08-12T06:48:35;24.80;99.90
3542;DHT22;1785;47.388;8.538;2023-08-12T06:51:01;24.90;99.90
3542;DHT22;1785;47.388;8.538;2023-08-12T06:53:32;25.10;99.90
3542;DHT22;1785;47.388;8.538;2023-08-12T06:55:58;25.00;99.90
3542;DHT22;1785;47.388;8.538;2023-08-12T06:58:24;25.10;99.90
3542;DHT22;1785;47.388;8.538;2023-08-12T07:00:50;25.30;99.90
3542;DHT22;1785;47.388;8.538;2023-08-12T07:03:18;24.90;99.90
3542;DHT22;1785;47.388;8.538;2023-08-12T07:05:44;24.20;99.90
3542;DHT22;1785;47.388;8.538;2023-08-12T07:08:10;23.90;99.90
3542;DHT22;1785;47.388;8.538;2023-08-12T07:10:38;24.10;99.90
3542;DHT22;1785;47.388;8.538;2023-08-12T07:13:04;24.40;99.90
3542;DHT22;1785;47.388;8.538;2023-08-12T07:15:30;24.80;99.90
3542;DHT22;1785;47.388;8.538;2023-08-12T07:17:56;25.10;99.90
3542;DHT22;1785;47.388;8.538;2023-08-12T07:20:23;25.20;99.90
3542;DHT22;1785;47.388;8.538;2023-08-12T07:22:50;25.50;99.90
3542;DHT22;1785;47.388;8.538;2023-08-12T07:25:16;25.70;99.90
3542;DHT22;1785;47.388;8.538;2023-08-12T07:27:42;25.70;99.90
3542;DHT22;1785;47.388;8.538;2023-08-12T07:30:09;25.60;99.90
3542;DHT22;1785;47.388;8.538;2023-08-12T07:32:36;25.70;99.90
3542;DHT22;1785;47.388;8.538;2023-08-12T07:35:03;25.80;99.90
3542;DHT22;1785;47.388;8.538;2023-08-12T07:37:31;25.90;99.90
3542;DHT22;1785;47.388;8.538;2023-08-12T07:39:58;26.00;99.90
3542;DHT22;1785;47.388;8.538;2023-08-12T07:42:24;26.00;99.90
3542;DHT22;1785;47.388;8.538;2023-08-12T07:44:50;26.30;99.90
3542;DHT22;1785;47.388;8.538;2023-08-12T07:47:16;26.20;99.90
3542;DHT22;1785;47.388;8.538;2023-08-12T07:49:43;26.20;99.90
3542;DHT22;1785;47.388;8.538;2023-08-12T07:52:09;26.10;99.90
3542;DHT22;1785;47.388;8.538;2023-08-12T07:54:35;26.10;99.90
3542;DHT22;1785;47.388;8.538;2023-08-12T07:57:02;26.10;99.90
3542;DHT22;1785;47.388;8.538;2023-08-12T07:59:29;26.10;99.90
3542;DHT22;1785;47.388;8.538;2023-08-12T08:01:55;26.10;99.90
3542;DHT22;1785;47.388;8.538;2023-08-12T08:04:21;26.10;99.90
3542;DHT22;1785;47.388;8.538;2023-08-12T08:06:47;26.10;99.90
3542;DHT22;1785;47.388;8.538;2023-08-12T08:09:13;26.10;99.90
3542;DHT22;1785;47.388;8.538;2023-08-12T08:11:40;26.10;99.90
3542;DHT22;1785;47.388;8.538;2023-08-12T08:14:07;26.00;99.90
3542;DHT22;1785;47.388;8.538;2023-08-12T08:16:33;26.20;99.90
3542;DHT22;1785;47.388;8.538;2023-08-12T08:18:59;26.30;99.90
3542;DHT22;1785;47.388;8.538;2023-08-12T08:21:25;26.30;99.90
3542;DHT22;1785;47.388;8.538;2023-08-12T08:23:51;26.00;99.90
3542;DHT22;1785;47.388;8.538;2023-08-12T08:26:17;25.90;99.90
3542;DHT22;1785;47.388;8.538;2023-08-12T08:28:43;26.10;99.90
3542;DHT22;1785;47.388;8.538;2023-08-12T08:31:10;26.30;99.90
3542;DHT22;1785;47.388;8.538;2023-08-12T08:33:36;26.60;99.90
3542;DHT22;1785;47.388;8.538;2023-08-12T08:36:03;26.70;99.90
3542;DHT22;1785;47.388;8.538;2023-08-12T08:38:29;26.80;99.90
3542;DHT22;1785;47.388;8.538;2023-08-12T08:40:56;26.30;99.90
3542;DHT22;1785;47.388;8.538;2023-08-12T08:43:24;25.80;99.90
3542;DHT22;1785;47.388;8.538;2023-08-12T08:45:53;25.70;99.90
3542;DHT22;1785;47.388;8.538;2023-08-12T08:48:20;25.70;99.90
3542;DHT22;1785;47.388;8.538;2023-08-12T08:50:46;26.00;99.90
3542;DHT22;1785;47.388;8.538;2023-08-12T08:53:14;26.20;99.90
3542;DHT22;1785;47.388;8.538;2023-08-12T08:55:42;26.40;99.90
3542;DHT22;1785;47.388;8.538;2023-08-12T08:58:08;26.70;99.90
3542;DHT22;1785;47.388;8.538;2023-08-12T09:00:34;26.90;99.90
3542;DHT22;1785;47.388;8.538;2023-08-12T09:03:01;27.00;99.90
3542;DHT22;1785;47.388;8.538;2023-08-12T09:05:30;27.00;99.90
3542;DHT22;1785;47.388;8.538;2023-08-12T09:07:58;27.00;99.90
3542;DHT22;1785;47.388;8.538;2023-08-12T09:10:26;26.90;99.90
3542;DHT22;1785;47.388;8.538;2023-08-12T09:12:53;27.00;99.90
3542;DHT22;1785;47.388;8.538;2023-08-12T09:15:19;27.00;99.90
3542;DHT22;1785;47.388;8.538;2023-08-12T09:17:45;27.20;99.90
3542;DHT22;1785;47.388;8.538;2023-08-12T09:20:11;27.20;99.90
3542;DHT22;1785;47.388;8.538;2023-08-12T09:22:38;27.30;99.90
3542;DHT22;1785;47.388;8.538;2023-08-12T09:25:06;27.10;99.90
3542;DHT22;1785;47.388;8.538;2023-08-12T09:27:36;26.90;99.90
3542;DHT22;1785;47.388;8.538;2023-08-12T09:30:03;26.60;99.90
3542;DHT22;1785;47.388;8.538;2023-08-12T09:32:30;26.40;99.90
3542;DHT22;1785;47.388;8.538;2023-08-12T09:34:56;26.30;99.90
3542;DHT22;1785;47.388;8.538;2023-08-12T09:37:24;26.40;99.90
3542;DHT22;1785;47.388;8.538;2023-08-12T09:39:51;26.40;99.90
3542;DHT22;1785;47.388;8.538;2023-08-12T09:42:18;26.30;99.90
3542;DHT22;1785;47.388;8.538;2023-08-12T09:44:45;26.30;99.90
3542;DHT22;1785;47.388;8.538;2023-08-12T09:47:11;26.20;99.90
3542;DHT22;1785;47.388;8.538;2023-08-12T09:49:38;26.40;99.90
3542;DHT22;1785;47.388;8.538;2023-08-12T09:52:05;26.70;99.90
3542;DHT22;1785;47.388;8.538;2023-08-12T09:54:32;26.70;99.90
3542;DHT22;1785;47.388;8.538;2023-08-12T09:57:01;26.80;99.90
3542;DHT22;1785;47.388;8.538;2023-08-12T09:59:30;27.00;99.90
3542;DHT22;1785;47.388;8.538;2023-08-12T10:01:57;27.10;99.90
3542;DHT22;1785;47.388;8.538;2023-08-12T10:04:27;27.30;99.90
3542;DHT22;1785;47.388;8.538;2023-08-12T10:06:54;27.30;99.90
3542;DHT22;1785;47.388;8.538;2023-08-12T10:09:21;27.40;99.90
3542;DHT22;1785;47.388;8.538;2023-08-12T10:11:47;27.50;99.90
3542;DHT22;1785;47.388;8.538;2023-08-12T10:14:14;27.60;99.90
3542;DHT22;1785;47.388;8.538;2023-08-12T10:16:42;27.70;99.90
3542;DHT22;1785;47.388;8.538;2023-08-12T10:19:11;27.80;99.90
3542;DHT22;1785;47.388;8.538;2023-08-12T10:21:38;27.80;99.90
3542;DHT22;1785;47.388;8.538;2023-08-12T10:24:05;28.00;99.90
3542;DHT22;1785;47.388;8.538;2023-08-12T10:26:32;27.70;99.90
3542;DHT22;1785;47.388;8.538;2023-08-12T10:28:59;27.50;99.90
3542;DHT22;1785;47.388;8.538;2023-08-12T10:31:27;27.50;99.90
3542;DHT22;1785;47.388;8.538;2023-08-12T10:33:54;27.00;99.90
3542;DHT22;1785;47.388;8.538;2023-08-12T10:36:21;27.00;99.90
3542;DHT22;1785;47.388;8.538;2023-08-12T10:38:47;27.10;99.90
3542;DHT22;1785;47.388;8.538;2023-08-12T10:41:17;26.90;99.90
3542;DHT22;1785;47.388;8.538;2023-08-12T10:43:51;27.00;99.90
3542;DHT22;1785;47.388;8.538;2023-08-12T10:46:22;26.90;99.90
3542;DHT22;1785;47.388;8.538;2023-08-12T10:48:57;26.90;99.90
3542;DHT22;1785;47.388;8.538;2023-08-12T10:51:46;27.00;99.90
3542;DHT22;1785;47.388;8.538;2023-08-12T10:54:25;27.00;99.90
3542;DHT22;1785;47.388;8.538;2023-08-12T10:57:10;27.10;99.90
3542;DHT22;1785;47.388;8.538;2023-08-12T10:59:53;26.70;99.90
3542;DHT22;1785;47.388;8.538;2023-08-12T11:02:22;26.50;99.90
3542;DHT22;1785;47.388;8.538;2023-08-12T11:04:51;26.60;99.90
3542;DHT22;1785;47.388;8.538;2023-08-12T11:07:18;26.50;99.90
3542;DHT22;1785;47.388;8.538;2023-08-12T11:09:45;26.50;99.90
3542;DHT22;1785;47.388;8.538;2023-08-12T11:12:17;26.80;99.90
3542;DHT22;1785;47.388;8.538;2023-08-12T11:14:49;26.80;99.90
3542;DHT22;1785;47.388;8.538;2023-08-12T11:17:19;26.40;99.90
3542;DHT22;1785;47.388;8.538;2023-08-12T11:19:45;26.10;99.90
3542;DHT22;1785;47.388;8.538;2023-08-12T11:22:12;26.20;99.90
3542;DHT22;1785;47.388;8.538;2023-08-12T11:24:40;26.30;99.90
3542;DHT22;1785;47.388;8.538;2023-08-12T11:27:09;26.30;99.90
3542;DHT22;1785;47.388;8.538;2023-08-12T11:29:36;26.40;99.90
3542;DHT22;1785;47.388;8.538;2023-08-12T11:32:03;26.50;99.90
3542;DHT22;1785;47.388;8.538;2023-08-12T11:34:30;26.50;99.90
3542;DHT22;1785;47.388;8.538;2023-08-12T11:36:57;26.50;99.90
3542;DHT22;1785;47.388;8.538;2023-08-12T11:39:24;26.50;99.90
3542;DHT22;1785;47.388;8.538;2023-08-12T11:41:50;26.60;99.90
3542;DHT22;1785;47.388;8.538;2023-08-12T11:44:16;26.60;99.90
3542;DHT22;1785;47.388;8.538;2023-08-12T11:46:42;26.50;99.90
3542;DHT22;1785;47.388;8.538;2023-08-12T11:49:08;26.60;99.90
3542;DHT22;1785;47.388;8.538;2023-08-12T11:51:35;26.60;99.90
3542;DHT22;1785;47.388;8.538;2023-08-12T11:54:01;26.50;99.90
3542;DHT22;1785;47.388;8.538;2023-08-12T11:56:28;26.70;99.90
3542;DHT22;1785;47.388;8.538;2023-08-12T11:58:54;26.70;99.90
3542;DHT22;1785;47.388;8.538;2023-08-12T12:01:21;26.80;99.90
3542;DHT22;1785;47.388;8.538;2023-08-12T12:03:50;26.80;99.90
3542;DHT22;1785;47.388;8.538;2023-08-12T12:06:16;26.70;99.90
3542;DHT22;1785;47.388;8.538;2023-08-12T12:08:44;26.80;99.90
3542;DHT22;1785;47.388;8.538;2023-08-12T12:11:10;26.90;99.90
3542;DHT22;1785;47.388;8.538;2023-08-12T12:13:37;26.90;99.90
3542;DHT22;1785;47.388;8.538;2023-08-12T12:16:03;26.90;99.90
3542;DHT22;1785;47.388;8.538;2023-08-12T12:18:30;27.00;99.90
3542;DHT22;1785;47.388;8.538;2023-08-12T12:20:58;27.20;99.90
3542;DHT22;1785;47.388;8.538;2023-08-12T12:23:27;27.20;99.90
3542;DHT22;1785;47.388;8.538;2023-08-12T12:25:57;27.40;99.90
3542;DHT22;1785;47.388;8.538;2023-08-12T12:28:24;27.50;99.90
3542;DHT22;1785;47.388;8.538;2023-08-12T12:30:50;27.50;99.90
3542;DHT22;1785;47.388;8.538;2023-08-12T12:33:16;27.70;99.90
3542;DHT22;1785;47.388;8.538;2023-08-12T12:35:42;27.90;99.90
3542;DHT22;1785;47.388;8.538;2023-08-12T12:38:08;28.00;99.90
3542;DHT22;1785;47.388;8.538;2023-08-12T12:40:35;28.10;99.90
3542;DHT22;1785;47.388;8.538;2023-08-12T12:43:03;28.30;99.90
3542;DHT22;1785;47.388;8.538;2023-08-12T12:45:30;28.40;99.90
3542;DHT22;1785;47.388;8.538;2023-08-12T12:47:56;28.40;99.90
3542;DHT22;1785;47.388;8.538;2023-08-12T12:50:22;28.40;99.90
3542;DHT22;1785;47.388;8.538;2023-08-12T12:52:48;28.60;99.90
3542;DHT22;1785;47.388;8.538;2023-08-12T12:55:15;28.80;99.90
3542;DHT22;1785;47.388;8.538;2023-08-12T12:57:41;28.90;99.90
3542;DHT22;1785;47.388;8.538;2023-08-12T13:00:07;29.00;99.90
3542;DHT22;1785;47.388;8.538;2023-08-12T13:02:37;29.10;99.90
3542;DHT22;1785;47.388;8.538;2023-08-12T13:05:04;29.10;99.90
3542;DHT22;1785;47.388;8.538;2023-08-12T13:07:30;29.20;99.90
3542;DHT22;1785;47.388;8.538;2023-08-12T13:09:56;29.20;99.90
3542;DHT22;1785;47.388;8.538;2023-08-12T13:12:22;29.60;99.90
3542;DHT22;1785;47.388;8.538;2023-08-12T13:14:48;29.40;99.90
3542;DHT22;1785;47.388;8.538;2023-08-12T13:17:14;29.20;99.90
3542;DHT22;1785;47.388;8.538;2023-08-12T13:19:40;28.80;99.90
3542;DHT22;1785;47.388;8.538;2023-08-12T13:22:07;28.70;99.90
3542;DHT22;1785;47.388;8.538;2023-08-12T13:24:33;29.00;99.90
3542;DHT22;1785;47.388;8.538;2023-08-12T13:26:59;29.40;99.90
3542;DHT22;1785;47.388;8.538;2023-08-12T13:29:25;29.80;99.90
3542;DHT22;1785;47.388;8.538;2023-08-12T13:31:51;29.90;99.90
3542;DHT22;1785;47.388;8.538;2023-08-12T13:34:17;30.00;99.90
3542;DHT22;1785;47.388;8.538;2023-08-12T13:36:43;30.10;99.90
3542;DHT22;1785;47.388;8.538;2023-08-12T13:39:10;30.30;99.90
3542;DHT22;1785;47.388;8.538;2023-08-12T13:41:36;30.40;99.90
3542;DHT22;1785;47.388;8.538;2023-08-12T13:44:03;30.60;99.90
3542;DHT22;1785;47.388;8.538;2023-08-12T13:46:29;30.50;99.90
3542;DHT22;1785;47.388;8.538;2023-08-12T13:48:55;30.60;99.90
3542;DHT22;1785;47.388;8.538;2023-08-12T13:51:21;30.80;99.90
3542;DHT22;1785;47.388;8.538;2023-08-12T13:53:47;30.80;99.90
3542;DHT22;1785;47.388;8.538;2023-08-12T13:56:14;30.50;99.90
3542;DHT22;1785;47.388;8.538;2023-08-12T13:58:41;30.30;99.90
3542;DHT22;1785;47.388;8.538;2023-08-12T14:01:07;30.80;99.90
3542;DHT22;1785;47.388;8.538;2023-08-12T14:03:34;31.00;99.90
3542;DHT22;1785;47.388;8.538;2023-08-12T14:06:01;31.20;99.90
3542;DHT22;1785;47.388;8.538;2023-08-12T14:08:27;31.20;99.90
3542;DHT22;1785;47.388;8.538;2023-08-12T14:10:53;31.30;99.90
3542;DHT22;1785;47.388;8.538;2023-08-12T14:13:19;31.60;99.90
3542;DHT22;1785;47.388;8.538;2023-08-12T14:15:45;31.80;99.90
3542;DHT22;1785;47.388;8.538;2023-08-12T14:18:11;31.70;99.90
3542;DHT22;1785;47.388;8.538;2023-08-12T14:20:38;31.20;99.90
3542;DHT22;1785;47.388;8.538;2023-08-12T14:23:04;31.20;99.90
3542;DHT22;1785;47.388;8.538;2023-08-12T14:25:30;31.40;99.90
3542;DHT22;1785;47.388;8.538;2023-08-12T14:27:56;31.60;99.90
3542;DHT22;1785;47.388;8.538;2023-08-12T14:30:24;31.60;99.90
3542;DHT22;1785;47.388;8.538;2023-08-12T14:32:51;31.50;99.90
3542;DHT22;1785;47.388;8.538;2023-08-12T14:35:17;31.30;99.90
3542;DHT22;1785;47.388;8.538;2023-08-12T14:37:43;31.20;99.90
3542;DHT22;1785;47.388;8.538;2023-08-12T14:40:10;31.20;99.90
3542;DHT22;1785;47.388;8.538;2023-08-12T14:42:37;30.90;99.90
3542;DHT22;1785;47.388;8.538;2023-08-12T14:45:03;30.80;99.90
3542;DHT22;1785;47.388;8.538;2023-08-12T14:47:30;30.70;99.90
3542;DHT22;1785;47.388;8.538;2023-08-12T14:49:56;30.60;99.90
3542;DHT22;1785;47.388;8.538;2023-08-12T14:52:22;30.70;99.90
3542;DHT22;1785;47.388;8.538;2023-08-12T14:54:48;30.70;99.90
3542;DHT22;1785;47.388;8.538;2023-08-12T14:57:15;30.60;99.90
3542;DHT22;1785;47.388;8.538;2023-08-12T14:59:41;31.00;99.90
3542;DHT22;1785;47.388;8.538;2023-08-12T15:02:07;31.30;99.90
3542;DHT22;1785;47.388;8.538;2023-08-12T15:04:34;31.70;99.90
3542;DHT22;1785;47.388;8.538;2023-08-12T15:07:00;31.70;99.90
3542;DHT22;1785;47.388;8.538;2023-08-12T15:09:26;31.20;99.90
3542;DHT22;1785;47.388;8.538;2023-08-12T15:11:52;31.20;99.90
3542;DHT22;1785;47.388;8.538;2023-08-12T15:14:19;31.40;99.90
3542;DHT22;1785;47.388;8.538;2023-08-12T15:16:45;31.60;99.90
3542;DHT22;1785;47.388;8.538;2023-08-12T15:19:11;31.80;99.90
3542;DHT22;1785;47.388;8.538;2023-08-12T15:21:38;31.60;99.90
3542;DHT22;1785;47.388;8.538;2023-08-12T15:24:04;31.30;99.90
3542;DHT22;1785;47.388;8.538;2023-08-12T15:26:31;31.20;99.90
3542;DHT22;1785;47.388;8.538;2023-08-12T15:28:57;31.40;99.90
3542;DHT22;1785;47.388;8.538;2023-08-12T15:31:23;31.80;99.90
3542;DHT22;1785;47.388;8.538;2023-08-12T15:33:49;32.00;99.90
3542;DHT22;1785;47.388;8.538;2023-08-12T15:36:15;32.50;99.90
3542;DHT22;1785;47.388;8.538;2023-08-12T15:38:42;32.30;99.90
3542;DHT22;1785;47.388;8.538;2023-08-12T15:41:12;32.20;99.90
3542;DHT22;1785;47.388;8.538;2023-08-12T15:43:39;32.30;99.90
3542;DHT22;1785;47.388;8.538;2023-08-12T15:46:05;32.20;99.90
3542;DHT22;1785;47.388;8.538;2023-08-12T15:48:31;32.50;99.90
3542;DHT22;1785;47.388;8.538;2023-08-12T15:51:00;32.50;99.90
3542;DHT22;1785;47.388;8.538;2023-08-12T15:53:27;32.50;99.90
3542;DHT22;1785;47.388;8.538;2023-08-12T15:55:54;32.70;99.90
3542;DHT22;1785;47.388;8.538;2023-08-12T15:58:20;32.30;99.90